Time;durP1;ratioP1;P1;durP2;ratioP2;P2;SDS_P1;SDS_P2;PMS_P1;PMS_P2;Temp;Humidity;BMP_temperature;BMP_pressure;BME280_temperature;BME280_humidity;BME280_pressure;Samples;Min_cycle;Max_cycle;Signal;HPM_P1;HPM_P2
2021/04/29 20:41:28;;;;;;;14.50;10.53;;;;;;;12.03;56.10;99293.05;125566;1090;22821;-59
2021/04/29 20:43:56;;;;;;;21.63;11.35;;;;;;;12.05;56.37;99293.60;125234;1101;22749;-59
2021/04/29 20:46:25;;;;;;;14.80;8.68;;;;;;;12.06;56.39;99295.24;129903;1101;23382;-59
2021/04/29 20:49:02;;;;;;;13.88;8.95;;;;;;;12.10;56.41;99287.33;130003;1101;23496;-60
2021/04/29 20:51:33;;;;;;;15.50;9.13;;;;;;;12.12;56.53;99283.20;129939;1101;22586;-60
2021/04/29 20:54:03;;;;;;;15.00;8.85;;;;;;;12.16;56.73;99287.03;129984;1101;22580;-59
2021/04/29 20:56:32;;;;;;;15.50;8.65;;;;;;;12.18;56.50;99282.13;129932;1101;22526;-59
2021/04/29 20:59:00;;;;;;;12.68;7.93;;;;;;;12.23;56.52;99286.77;130002;1101;22559;-60
2021/04/29 21:01:29;;;;;;;12.73;8.33;;;;;;;12.27;56.60;99285.93;129963;1101;22564;-59
2021/04/29 21:03:58;;;;;;;12.30;8.15;;;;;;;12.30;56.69;99285.38;129985;1101;23417;-60
2021/04/29 21:06:26;;;;;;;10.98;8.00;;;;;;;12.33;56.36;99287.58;129923;1101;22541;-60
2021/04/29 21:08:55;;;;;;;12.30;8.08;;;;;;;12.36;56.69;99278.02;130010;1101;22544;-60
2021/04/29 21:11:23;;;;;;;10.75;7.40;;;;;;;12.38;56.67;99275.83;129937;1101;22708;-60
2021/04/29 21:13:51;;;;;;;15.83;7.53;;;;;;;12.41;56.56;99282.66;130019;1101;22686;-60
2021/04/29 21:16:19;;;;;;;10.18;7.98;;;;;;;12.43;56.67;99277.71;129936;1101;22566;-60
2021/04/29 21:18:47;;;;;;;9.30;6.93;;;;;;;12.45;56.82;99280.99;129968;1101;22562;-60
2021/04/29 21:21:15;;;;;;;9.63;7.35;;;;;;;12.45;56.69;99279.08;129976;1101;22594;-60
2021/04/29 21:23:43;;;;;;;11.70;7.90;;;;;;;12.46;56.69;99282.63;130027;1101;22510;-59
2021/04/29 21:26:11;;;;;;;10.90;7.60;;;;;;;12.47;56.76;99282.36;129991;1101;22733;-59
2021/04/29 21:28:39;;;;;;;12.47;7.50;;;;;;;12.48;56.90;99273.06;130010;1101;22604;-59
2021/04/29 21:31:07;;;;;;;10.10;7.70;;;;;;;12.48;57.06;99273.06;129973;1101;22528;-60
2021/04/29 21:33:35;;;;;;;10.90;7.48;;;;;;;12.49;57.10;99276.63;129996;1101;22554;-60
2021/04/29 21:36:03;;;;;;;9.95;7.28;;;;;;;12.50;57.11;99276.34;129995;1101;22682;-60
2021/04/29 21:38:31;;;;;;;9.85;7.53;;;;;;;12.49;57.14;99271.16;129964;1101;22561;-59
2021/04/29 21:40:59;;;;;;;9.70;7.35;;;;;;;12.49;57.34;99276.63;129974;1101;23547;-60
2021/04/29 21:43:27;;;;;;;10.30;7.70;;;;;;;12.48;57.22;99270.34;129930;1101;22620;-60
2021/04/29 21:45:56;;;;;;;18.15;7.95;;;;;;;12.48;57.78;99266.78;129996;1101;22668;-59
2021/04/29 21:48:25;;;;;;;11.70;7.03;;;;;;;12.47;57.54;99259.68;130004;1101;22752;-60
2021/04/29 21:50:54;;;;;;;11.10;7.88;;;;;;;12.45;57.76;99265.42;130017;1101;22534;-60
2021/04/29 21:53:22;;;;;;;11.87;6.67;;;;;;;12.46;57.71;99267.06;129985;1101;23474;-60
2021/04/29 21:55:49;;;;;;;11.15;7.10;;;;;;;12.47;57.78;99265.14;130016;1101;22615;-60
2021/04/29 21:58:21;;;;;;;9.18;7.25;;;;;;;12.45;57.77;99268.15;129966;1101;22870;-60
2021/04/29 22:00:51;;;;;;;9.53;7.35;;;;;;;12.45;57.87;99267.33;130004;1101;22677;-60
2021/04/29 22:03:19;;;;;;;10.83;7.45;;;;;;;12.41;58.23;99258.07;129971;1101;22676;-60
2021/04/29 22:05:49;;;;;;;9.85;6.70;;;;;;;12.40;58.24;99262.72;130050;1101;22545;-60
2021/04/29 22:08:17;;;;;;;8.28;7.30;;;;;;;12.36;58.17;99254.25;129973;1101;22601;-60
2021/04/29 22:10:51;;;;;;;11.28;7.70;;;;;;;12.34;58.37;99261.08;129977;1101;22718;-60
2021/04/29 22:13:20;;;;;;;13.28;7.48;;;;;;;12.30;58.82;99262.71;129966;1101;22561;-60
2021/04/29 22:15:49;;;;;;;11.10;8.10;;;;;;;12.24;58.98;99252.91;130030;1101;22689;-59
2021/04/29 22:18:17;;;;;;;10.20;7.88;;;;;;;12.21;58.98;99254.27;129941;1101;22565;-60
2021/04/29 22:20:46;;;;;;;13.13;8.80;;;;;;;12.17;59.17;99244.98;129987;1101;24434;-60
2021/04/29 22:23:14;;;;;;;10.80;7.25;;;;;;;12.14;59.42;99248.25;129963;1101;22584;-60
2021/04/29 22:25:42;;;;;;;11.05;7.88;;;;;;;12.12;59.54;99249.64;129996;1101;22564;-60
2021/04/29 22:28:10;;;;;;;13.28;7.80;;;;;;;12.10;59.72;99246.37;130030;1101;23009;-60
2021/04/29 22:30:40;;;;;;;10.00;7.58;;;;;;;12.08;59.79;99238.45;129979;1101;22670;-60
2021/04/29 22:33:10;;;;;;;11.03;7.48;;;;;;;12.05;59.99;99236.25;129994;1101;22513;-60
2021/04/29 22:35:37;;;;;;;8.93;7.58;;;;;;;12.01;60.29;99227.78;129954;1101;22598;-59
2021/04/29 22:38:05;;;;;;;10.65;7.78;;;;;;;11.98;60.45;99231.06;130027;1101;22602;-60
2021/04/29 22:40:33;;;;;;;8.43;7.50;;;;;;;11.98;60.78;99231.06;129945;1101;22682;-60
2021/04/29 22:43:02;;;;;;;12.90;8.35;;;;;;;11.93;60.71;99217.44;129999;1101;23592;-60
2021/04/29 22:45:30;;;;;;;10.03;7.93;;;;;;;11.96;60.82;99230.55;129270;1101;22763;-60
2021/04/29 22:47:59;;;;;;;10.07;7.93;;;;;;;11.94;60.88;99223.72;125419;1101;22766;-60
2021/04/29 22:50:27;;;;;;;11.13;7.90;;;;;;;11.93;61.26;99219.34;129970;1101;22632;-59
2021/04/29 22:52:54;;;;;;;22.30;9.15;;;;;;;11.92;61.28;99225.89;130013;1101;22568;-60
2021/04/29 22:55:23;;;;;;;14.33;8.10;;;;;;;11.91;61.61;99219.61;129964;1101;22610;-60
2021/04/29 22:57:51;;;;;;;10.98;8.60;;;;;;;11.91;61.70;99224.25;130006;1101;22613;-60
2021/04/29 23:00:19;;;;;;;13.03;9.33;;;;;;;11.90;61.84;99219.88;129967;1101;22702;-60
2021/04/29 23:02:47;;;;;;;10.30;8.35;;;;;;;11.90;62.02;99220.70;130048;1101;22642;-60
2021/04/29 23:05:16;;;;;;;11.10;8.93;;;;;;;11.87;62.04;99218.52;129970;1101;23484;-60
2021/04/29 23:07:44;;;;;;;11.50;9.43;;;;;;;11.87;62.10;99218.52;129989;1101;22633;-60
2021/04/29 23:10:13;;;;;;;10.20;8.93;;;;;;;11.87;62.17;99214.97;129948;1101;23199;-60
2021/04/29 23:12:43;;;;;;;11.33;9.08;;;;;;;11.85;62.23;99217.97;129999;1101;22548;-60
2021/04/29 23:15:11;;;;;;;10.95;8.00;;;;;;;11.84;62.34;99220.97;129957;1101;22547;-60
2021/04/29 23:17:39;;;;;;;14.33;9.00;;;;;;;11.84;62.41;99215.50;130000;1101;22568;-60
2021/04/29 23:20:08;;;;;;;10.50;8.35;;;;;;;11.86;62.48;99216.05;130056;1101;22574;-60
2021/04/29 23:22:36;;;;;;;11.73;8.40;;;;;;;11.84;62.83;99212.78;130038;1101;22607;-60
2021/04/29 23:25:08;;;;;;;11.18;8.65;;;;;;;11.82;62.63;99204.89;130051;1101;22589;-60
2021/04/29 23:27:36;;;;;;;10.78;8.18;;;;;;;11.81;62.70;99210.62;129958;1101;22680;-58
2021/04/29 23:30:05;;;;;;;8.25;7.23;;;;;;;11.77;62.91;99204.06;130022;1101;22520;-58
2021/04/29 23:32:33;;;;;;;9.60;8.13;;;;;;;11.75;62.94;99203.48;130006;1101;22526;-58
2021/04/29 23:35:02;;;;;;;11.43;8.65;;;;;;;11.76;63.29;99202.42;129953;1101;23150;-58
2021/04/29 23:37:30;;;;;;;10.98;8.43;;;;;;;11.76;63.20;99202.42;129934;1101;22591;-58
2021/04/29 23:39:58;;;;;;;13.20;9.15;;;;;;;11.76;63.40;99199.69;129976;1100;22662;-58
2021/04/29 23:42:26;;;;;;;11.38;8.80;;;;;;;11.76;63.42;99196.96;129959;1101;22629;-58
2021/04/29 23:44:54;;;;;;;12.53;9.18;;;;;;;11.74;63.57;99196.38;130024;1101;22584;-58
2021/04/29 23:47:22;;;;;;;10.88;8.85;;;;;;;11.74;63.81;99199.11;129964;1101;22617;-58
2021/04/29 23:49:50;;;;;;;11.05;8.60;;;;;;;11.72;63.75;99201.29;130049;1101;22551;-58
2021/04/29 23:52:18;;;;;;;13.65;8.95;;;;;;;11.72;63.76;99193.92;130003;1101;22555;-58
2021/04/29 23:54:46;;;;;;;11.65;8.38;;;;;;;11.71;63.93;99189.55;129992;1101;22613;-58
2021/04/29 23:57:14;;;;;;;15.63;9.00;;;;;;;11.72;63.99;99190.38;129978;1101;22632;-60
2021/04/29 23:59:42;;;;;;;12.93;9.03;;;;;;;11.71;64.08;99192.28;130011;1101;22727;-60
